Kempsford, United Kingdom

2:29 PM BST on July 24, 2016 (GMT +0100)
Fairford RAF | | Change Station

Elev 285 ft 51.68 °N, 1.79 °W | Updated 5 minutes ago

Overcast
Overcast
68 °F
Feels Like 68 °F
N
14
Wind Variable Wind from SW

Today
High -- | Low -- °F
--% Chance of Precip.
Yesterday
High -- | Low -- °F
Precip. -- in
Pressure 30.06 in
Visibility -9999.0 miles
Clouds Mostly Cloudy 1600 ft
Overcast 2200 ft
Dew Point 66 °F
Humidity 94%
Rainfall 0.00 in
Snow Depth Not available.
5:18 AM 9:07 PM
Waning Gibbous, 76% visible
SPECI EGVA 241324Z AUTO 23012KT M M BKN016 OVC022 20/19 A3006 RMK AO2 RAB01E02DZB02E09RAB09E11DZB11E18RAB18E19 CIG 016V022 PNO $
Pressure 30.06 in
Visibility -9999.0 miles
Clouds Mostly Cloudy 1600 ft
Overcast 2200 ft
Dew Point 66 °F
Humidity 94%
Rainfall 0.00 in
Snow Depth Not available.
5:18 AM 9:07 PM
Waning Gibbous, 76% visible
SPECI EGVA 241324Z AUTO 23012KT M M BKN016 OVC022 20/19 A3006 RMK AO2 RAB01E02DZB02E09RAB09E11DZB11E18RAB18E19 CIG 016V022 PNO $

10-Day Weather Forecast

×

Almanac

Astronomy

Jul. 24, 2016 Rise Set
Actual Time
Civil Twilight
Nautical Twilight
Astronomical Twilight
Moon
Length of Visible Light
Length of Day
Tomorrow will be .
, % of the Moon is Illuminated

Today's Extremes

Country Highs Country Lows

Community

WunderPhotos

Upload Photos

1,927,057 photos uploaded!

WunderBlog® & News

Nearby

Air Quality

  Air Quality AQ Index Pollutant
Not available.

Snow Depth

Station Depth Elevation

Earthquake Activity

City Distance Mag. Time & Date
Minimum magnitude displayed is 2.5.

Coastal Water Temperatures

Place Temperature

Stations

Nearby Weather Stations

Station Location Temp. Windchill Dew Point Humidity Wind Precip. Elev Updated Type